createdAt,value
2023-01-09T00:00:52.100Z,11.57
2023-01-09T00:03:26.636Z,11.23
2023-01-09T00:05:59.632Z,11.87
2023-01-09T00:08:32.659Z,11.87
2023-01-09T00:11:06.515Z,10.60
2023-01-09T00:13:40.071Z,11.20
2023-01-09T00:16:13.079Z,10.97
2023-01-09T00:18:47.475Z,9.67
2023-01-09T00:21:21.448Z,9.97
2023-01-09T00:23:55.542Z,10.47
2023-01-09T00:26:28.590Z,11.33
2023-01-09T00:29:01.609Z,10.67
2023-01-09T00:31:34.659Z,11.10
2023-01-09T00:34:11.355Z,11.60
2023-01-09T00:36:44.392Z,10.30
2023-01-09T00:39:17.429Z,10.23
2023-01-09T00:41:55.565Z,11.80
2023-01-09T00:44:34.127Z,10.47
2023-01-09T00:47:13.639Z,10.90
2023-01-09T00:49:49.065Z,10.23
2023-01-09T00:52:23.341Z,9.10
2023-01-09T00:54:56.383Z,7.87
2023-01-09T00:57:29.610Z,7.53
2023-01-09T01:00:03.529Z,6.57
2023-01-09T01:02:36.678Z,4.90
2023-01-09T01:05:28.943Z,4.70
2023-01-09T01:08:01.934Z,3.73
2023-01-09T01:10:34.956Z,3.87
2023-01-09T01:13:08.551Z,3.77
2023-01-09T01:15:42.115Z,3.77
2023-01-09T01:18:15.964Z,3.83
2023-01-09T01:20:50.309Z,3.77
2023-01-09T01:23:23.415Z,4.53
2023-01-09T01:25:56.419Z,3.70
2023-01-09T01:28:29.400Z,4.20
2023-01-09T01:31:02.926Z,4.00
2023-01-09T01:33:37.019Z,7.07
2023-01-09T01:36:11.745Z,7.13
2023-01-09T01:38:46.746Z,7.30
2023-01-09T01:41:29.487Z,8.70
2023-01-09T01:44:06.584Z,8.63
2023-01-09T01:46:39.644Z,8.40
2023-01-09T01:49:20.263Z,8.00
2023-01-09T01:51:55.828Z,7.63
2023-01-09T01:54:31.239Z,8.07
2023-01-09T01:57:06.071Z,7.77
2023-01-09T01:59:43.092Z,7.07
2023-01-09T02:02:16.368Z,6.97
2023-01-09T02:04:52.089Z,6.30
2023-01-09T02:07:26.659Z,5.63
2023-01-09T02:10:01.004Z,6.00
2023-01-09T02:12:34.051Z,5.90
2023-01-09T02:15:10.899Z,6.03
2023-01-09T02:18:11.981Z,5.17
2023-01-09T02:20:53.490Z,5.53
2023-01-09T02:24:08.530Z,6.23
2023-01-09T02:27:08.201Z,6.20
2023-01-09T02:30:38.068Z,5.00
2023-01-09T02:33:27.138Z,4.90
2023-01-09T02:36:14.332Z,4.60
2023-01-09T02:39:04.959Z,4.00
2023-01-09T02:41:44.544Z,3.77
2023-01-09T02:44:24.609Z,3.23
2023-01-09T02:47:36.917Z,2.93
2023-01-09T02:50:17.618Z,4.90
2023-01-09T02:53:10.640Z,6.90
2023-01-09T02:56:00.152Z,7.67
2023-01-09T02:58:55.148Z,6.40
2023-01-09T03:01:37.437Z,7.47
2023-01-09T03:04:22.048Z,6.90
2023-01-09T03:07:02.773Z,6.27
2023-01-09T03:09:38.742Z,5.63
2023-01-09T03:12:17.583Z,4.80
2023-01-09T03:14:54.667Z,3.80
2023-01-09T03:17:31.921Z,3.10
2023-01-09T03:20:10.608Z,2.97
2023-01-09T03:22:54.845Z,3.00
2023-01-09T03:25:29.754Z,2.83
2023-01-09T03:28:06.061Z,2.83
2023-01-09T03:30:39.114Z,3.00
2023-01-09T03:33:12.320Z,2.77
2023-01-09T03:35:46.644Z,2.03
2023-01-09T03:38:19.622Z,1.97
2023-01-09T03:40:52.622Z,2.40
2023-01-09T03:43:25.893Z,1.80
2023-01-09T03:45:59.576Z,2.60
2023-01-09T03:48:32.626Z,2.20
2023-01-09T03:51:07.324Z,1.97
2023-01-09T03:53:40.354Z,2.13
2023-01-09T03:56:13.414Z,1.90
2023-01-09T03:58:46.429Z,2.00
2023-01-09T04:01:19.573Z,1.90
2023-01-09T04:03:52.733Z,1.80
2023-01-09T04:06:27.073Z,1.70
2023-01-09T04:09:00.069Z,1.80
2023-01-09T04:11:33.136Z,2.10
2023-01-09T04:14:06.162Z,1.80
2023-01-09T04:16:39.149Z,2.00
2023-01-09T04:19:12.148Z,2.00
2023-01-09T04:21:46.479Z,1.90
2023-01-09T04:24:19.766Z,1.70
2023-01-09T04:26:52.785Z,1.80
2023-01-09T04:29:25.774Z,1.50
2023-01-09T04:31:58.786Z,2.13
2023-01-09T04:34:31.813Z,2.10
2023-01-09T04:37:06.254Z,1.97
2023-01-09T04:39:40.701Z,2.20
2023-01-09T04:42:14.337Z,2.10
2023-01-09T04:44:47.341Z,1.90
2023-01-09T04:47:20.740Z,2.10
2023-01-09T04:49:53.732Z,1.90
2023-01-09T04:52:29.575Z,2.23
2023-01-09T04:55:02.622Z,2.17
2023-01-09T04:57:35.984Z,2.00
2023-01-09T05:00:12.214Z,1.83
2023-01-09T05:02:45.392Z,1.53
2023-01-09T05:05:18.535Z,1.73
2023-01-09T05:07:52.838Z,1.70
2023-01-09T05:10:25.814Z,1.80
2023-01-09T05:12:58.795Z,1.50
2023-01-09T05:15:31.907Z,1.73
2023-01-09T05:18:05.182Z,1.27
2023-01-09T05:20:38.246Z,1.67
2023-01-09T05:23:12.594Z,1.63
2023-01-09T05:25:45.850Z,1.60
2023-01-09T05:28:18.855Z,1.80
2023-01-09T05:30:51.861Z,1.63
2023-01-09T05:33:24.990Z,1.50
2023-01-09T05:35:57.976Z,1.50
2023-01-09T05:38:32.349Z,1.80
2023-01-09T05:41:05.591Z,1.47
2023-01-09T05:43:38.651Z,1.83
2023-01-09T05:46:11.737Z,1.60
2023-01-09T05:48:45.518Z,2.00
2023-01-09T05:51:18.650Z,2.20
2023-01-09T05:53:53.020Z,2.73
2023-01-09T05:56:26.235Z,2.70
2023-01-09T05:58:59.236Z,1.90
2023-01-09T06:01:32.296Z,1.63
2023-01-09T06:04:05.617Z,2.10
2023-01-09T06:06:39.829Z,2.60
2023-01-09T06:09:14.239Z,2.67
2023-01-09T06:11:47.223Z,2.60
2023-01-09T06:14:20.413Z,2.00
2023-01-09T06:16:53.481Z,1.80
2023-01-09T06:19:26.593Z,1.93
2023-01-09T06:21:59.618Z,2.37
2023-01-09T06:24:33.979Z,1.60
2023-01-09T06:27:07.682Z,1.67
2023-01-09T06:29:40.976Z,1.47
2023-01-09T06:32:14.011Z,1.87
2023-01-09T06:34:47.017Z,1.70
2023-01-09T06:37:20.046Z,2.00
2023-01-09T06:39:54.776Z,2.13
2023-01-09T06:42:27.962Z,2.00
2023-01-09T06:45:00.996Z,1.97
2023-01-09T06:47:34.006Z,2.03
2023-01-09T06:50:09.266Z,2.70
2023-01-09T06:52:42.281Z,2.10
2023-01-09T06:55:17.788Z,2.10
2023-01-09T06:57:50.819Z,1.93
2023-01-09T07:00:24.258Z,1.90
2023-01-09T07:02:57.275Z,1.93
2023-01-09T07:05:30.968Z,1.80
2023-01-09T07:08:04.192Z,2.20
2023-01-09T07:10:38.529Z,3.20
2023-01-09T07:13:11.710Z,2.70
2023-01-09T07:15:44.826Z,3.00
2023-01-09T07:18:17.870Z,2.73
2023-01-09T07:20:50.869Z,3.27
2023-01-09T07:23:23.933Z,2.60
2023-01-09T07:25:58.335Z,3.17
2023-01-09T07:28:31.433Z,2.80
2023-01-09T07:31:04.826Z,2.87
2023-01-09T07:33:37.891Z,2.30
2023-01-09T07:36:11.508Z,2.53
2023-01-09T07:38:44.553Z,2.20
2023-01-09T07:41:18.948Z,2.27
2023-01-09T07:43:51.984Z,1.93
2023-01-09T07:46:24.979Z,2.30
2023-01-09T07:48:57.991Z,2.40
2023-01-09T07:51:31.015Z,2.07
2023-01-09T07:54:03.998Z,1.77
2023-01-09T07:56:38.356Z,2.17
2023-01-09T07:59:11.613Z,2.07
2023-01-09T08:01:44.648Z,1.90
2023-01-09T08:04:17.650Z,2.10
2023-01-09T08:06:50.730Z,2.40
2023-01-09T08:09:23.768Z,2.30
2023-01-09T08:11:58.379Z,2.00
2023-01-09T08:14:31.635Z,1.93
2023-01-09T08:17:04.668Z,1.70
2023-01-09T08:19:37.645Z,2.10
2023-01-09T08:22:10.758Z,1.67
2023-01-09T08:24:43.818Z,2.00
2023-01-09T08:27:18.203Z,2.10
2023-01-09T08:29:51.210Z,2.20
2023-01-09T08:32:24.172Z,1.93
2023-01-09T08:34:57.400Z,2.00
2023-01-09T08:37:30.428Z,1.90
2023-01-09T08:40:03.492Z,1.87
2023-01-09T08:42:55.592Z,2.10
2023-01-09T08:45:46.170Z,2.17
2023-01-09T08:48:19.216Z,2.03
2023-01-09T08:50:54.055Z,2.03
2023-01-09T08:53:27.063Z,2.20
2023-01-09T08:56:00.179Z,1.73
2023-01-09T08:58:35.005Z,2.10
2023-01-09T09:01:08.847Z,2.40
2023-01-09T09:03:41.896Z,2.40
2023-01-09T09:06:14.899Z,1.90
2023-01-09T09:08:47.983Z,2.50
2023-01-09T09:11:20.982Z,2.33
2023-01-09T09:13:55.312Z,2.23
2023-01-09T09:16:28.934Z,2.33
2023-01-09T09:19:01.976Z,2.30
2023-01-09T09:21:34.920Z,2.67
2023-01-09T09:24:08.145Z,2.53
2023-01-09T09:26:42.227Z,2.10
2023-01-09T09:29:18.137Z,2.17
2023-01-09T09:31:51.165Z,2.80
2023-01-09T09:34:24.410Z,2.67
2023-01-09T09:36:57.442Z,2.80
2023-01-09T09:39:30.593Z,2.50
2023-01-09T09:42:54.625Z,2.43
2023-01-09T09:45:38.781Z,2.00
2023-01-09T09:48:28.051Z,2.40
2023-01-09T09:51:27.336Z,2.30
2023-01-09T09:54:03.938Z,2.27
2023-01-09T09:56:48.542Z,2.30
2023-01-09T09:59:26.899Z,2.77
2023-01-09T10:02:07.186Z,2.40
2023-01-09T10:04:46.635Z,1.83
2023-01-09T10:07:25.129Z,2.20
2023-01-09T10:10:05.055Z,2.60
2023-01-09T10:12:46.243Z,2.33
2023-01-09T10:15:25.806Z,2.00
2023-01-09T10:18:18.356Z,1.97
2023-01-09T10:20:59.605Z,2.13
2023-01-09T10:24:13.761Z,2.20
2023-01-09T10:26:49.453Z,2.00
2023-01-09T10:29:46.096Z,1.90
2023-01-09T10:32:56.204Z,1.77
2023-01-09T10:35:52.295Z,2.10
2023-01-09T10:38:31.853Z,2.27
2023-01-09T10:41:11.771Z,2.20
2023-01-09T10:43:50.440Z,2.30
2023-01-09T10:46:29.782Z,2.30
2023-01-09T10:49:05.382Z,2.27
2023-01-09T10:51:48.985Z,2.10
2023-01-09T10:54:23.989Z,2.13
2023-01-09T10:57:01.717Z,2.00
2023-01-09T10:59:34.787Z,2.30
2023-01-09T11:02:27.832Z,2.20
2023-01-09T11:05:01.010Z,2.00
2023-01-09T11:07:39.171Z,2.20
2023-01-09T11:10:15.514Z,2.17
2023-01-09T11:12:48.691Z,2.20
2023-01-09T11:15:32.262Z,1.93
2023-01-09T11:18:24.970Z,2.27
2023-01-09T11:21:13.477Z,2.17
2023-01-09T11:23:49.951Z,1.80
2023-01-09T11:26:25.656Z,2.20
2023-01-09T11:29:11.635Z,2.07
2023-01-09T11:31:53.456Z,2.00
2023-01-09T11:34:29.114Z,2.25
2023-01-09T11:37:07.823Z,2.08
2023-01-09T11:39:48.086Z,1.92
2023-01-09T11:42:43.975Z,2.70
2023-01-09T11:45:18.846Z,1.83
2023-01-09T11:47:51.848Z,1.98
2023-01-09T11:50:27.405Z,1.98
2023-01-09T11:53:16.454Z,2.07
2023-01-09T11:56:01.078Z,2.30
2023-01-09T11:58:35.867Z,2.20
2023-01-09T12:01:27.102Z,1.80
2023-01-09T12:04:16.273Z,1.90
2023-01-09T12:07:08.496Z,2.13
2023-01-09T12:09:47.416Z,2.10
2023-01-09T12:12:31.565Z,2.28
2023-01-09T12:15:24.747Z,2.10
2023-01-09T12:18:16.047Z,2.05
2023-01-09T12:21:03.805Z,2.13
2023-01-09T12:24:01.826Z,1.95
2023-01-09T12:26:42.308Z,2.03
2023-01-09T12:29:59.144Z,2.17
2023-01-09T12:32:51.599Z,2.40
2023-01-09T12:35:35.107Z,2.08
2023-01-09T12:38:29.448Z,2.30
2023-01-09T12:41:25.775Z,2.67
2023-01-09T12:44:35.535Z,2.47
2023-01-09T12:47:29.811Z,2.30
2023-01-09T12:50:31.472Z,1.90
2023-01-09T12:53:15.201Z,2.00
2023-01-09T12:55:54.939Z,2.35
2023-01-09T12:58:37.341Z,2.38
2023-01-09T13:01:16.521Z,2.17
2023-01-09T13:04:00.811Z,2.13
2023-01-09T13:06:36.291Z,2.33
2023-01-09T13:09:23.116Z,2.00
2023-01-09T13:12:04.637Z,2.15
2023-01-09T13:14:52.267Z,1.92
2023-01-09T13:17:31.386Z,1.83
2023-01-09T13:20:19.179Z,1.98
2023-01-09T13:22:53.227Z,1.90
2023-01-09T13:25:40.975Z,1.75
2023-01-09T13:28:19.934Z,2.30
2023-01-09T13:31:36.311Z,2.70
2023-01-09T13:34:21.793Z,2.22
2023-01-09T13:36:58.526Z,2.20
2023-01-09T13:39:33.889Z,2.27
2023-01-09T13:42:38.900Z,2.13
2023-01-09T13:45:22.943Z,2.40
2023-01-09T13:48:40.591Z,2.47
2023-01-09T13:52:00.263Z,2.10
2023-01-09T13:55:36.119Z,2.13
2023-01-09T13:58:25.966Z,4.10
2023-01-09T14:01:03.169Z,2.67
2023-01-09T14:03:38.204Z,1.95
2023-01-09T14:06:19.221Z,2.00
2023-01-09T14:09:20.331Z,2.03
2023-01-09T14:12:04.873Z,1.80
2023-01-09T14:14:43.408Z,1.90
2023-01-09T14:17:19.289Z,1.70
2023-01-09T14:19:58.520Z,1.90
2023-01-09T14:22:45.375Z,1.80
2023-01-09T14:25:32.828Z,2.33
2023-01-09T14:28:22.108Z,2.10
2023-01-09T14:31:08.906Z,2.20
2023-01-09T14:33:42.097Z,2.67
2023-01-09T14:36:19.534Z,2.87
2023-01-09T14:38:54.553Z,1.80
2023-01-09T14:41:53.765Z,2.10
2023-01-09T14:44:30.856Z,1.93
2023-01-09T14:47:16.123Z,1.90
2023-01-09T14:49:56.688Z,1.67
2023-01-09T14:52:32.401Z,1.60
2023-01-09T14:55:18.803Z,1.93
2023-01-09T14:57:55.028Z,1.77
2023-01-09T15:00:28.186Z,2.30
2023-01-09T15:03:03.965Z,1.80
2023-01-09T15:05:37.949Z,2.20
2023-01-09T15:08:17.972Z,1.60
2023-01-09T15:10:53.977Z,2.20
2023-01-09T15:13:37.117Z,2.53
2023-01-09T15:16:20.565Z,2.40
2023-01-09T15:18:56.905Z,2.17
2023-01-09T15:21:32.093Z,2.00
2023-01-09T15:24:13.908Z,2.13
2023-01-09T15:26:54.614Z,1.90
2023-01-09T15:29:29.982Z,2.03
2023-01-09T15:32:07.278Z,2.17
2023-01-09T15:34:41.068Z,2.00
2023-01-09T15:37:30.783Z,7.30
2023-01-09T15:40:07.951Z,6.07
2023-01-09T15:42:58.064Z,7.03
2023-01-09T15:45:37.276Z,4.70
2023-01-09T15:48:24.037Z,4.57
2023-01-09T15:50:59.954Z,4.23
2023-01-09T15:53:33.476Z,3.47
2023-01-09T15:56:17.329Z,3.30
2023-01-09T15:58:51.738Z,2.63
2023-01-09T16:01:32.095Z,2.50
2023-01-09T16:04:08.945Z,1.53
2023-01-09T16:06:47.408Z,2.30
2023-01-09T16:09:26.757Z,2.00
2023-01-09T16:12:03.209Z,2.63
2023-01-09T16:14:39.065Z,2.93
2023-01-09T16:17:18.858Z,4.20
2023-01-09T16:19:53.735Z,3.00
2023-01-09T16:22:29.549Z,2.50
2023-01-09T16:25:20.128Z,2.70
2023-01-09T16:30:55.154Z,4.60
2023-01-09T16:33:31.405Z,3.20
2023-01-09T16:36:06.182Z,3.33
2023-01-09T16:38:39.202Z,2.67
2023-01-09T16:41:33.543Z,2.50
2023-01-09T16:44:09.550Z,3.80
2023-01-09T16:46:44.854Z,4.27
2023-01-09T16:49:22.762Z,5.17
2023-01-09T16:51:56.973Z,4.40
2023-01-09T16:54:31.033Z,4.00
2023-01-09T16:57:04.637Z,3.87
2023-01-09T16:59:37.662Z,4.33
2023-01-09T17:02:18.807Z,3.00
2023-01-09T17:04:55.203Z,3.47
2023-01-09T17:07:31.078Z,9.50
2023-01-09T17:10:04.832Z,7.67
2023-01-09T17:12:38.547Z,12.90
2023-01-09T17:15:12.239Z,8.97
2023-01-09T17:17:45.254Z,7.13
2023-01-09T17:20:21.407Z,7.47
2023-01-09T17:22:54.404Z,6.07
2023-01-09T17:25:44.956Z,5.00
2023-01-09T17:28:35.911Z,7.00
2023-01-09T17:31:12.702Z,4.43
2023-01-09T17:33:45.767Z,4.37
2023-01-09T17:36:28.390Z,4.70
2023-01-09T17:39:02.828Z,3.50
2023-01-09T17:41:35.894Z,4.43
2023-01-09T17:44:10.753Z,5.50
2023-01-09T17:46:45.558Z,5.97
2023-01-09T17:49:23.131Z,6.20
2023-01-09T17:51:57.585Z,5.13
2023-01-09T17:54:31.303Z,4.73
2023-01-09T17:57:04.661Z,4.40
2023-01-09T17:59:37.670Z,3.80
2023-01-09T18:02:17.997Z,3.63
2023-01-09T18:04:51.183Z,3.40
2023-01-09T18:07:25.552Z,3.30
2023-01-09T18:09:58.844Z,3.40
2023-01-09T18:12:31.820Z,3.30
2023-01-09T18:15:05.305Z,3.93
2023-01-09T18:17:38.315Z,4.63
2023-01-09T18:20:12.642Z,4.60
2023-01-09T18:22:47.610Z,3.60
2023-01-09T18:25:21.717Z,6.20
2023-01-09T18:27:54.734Z,3.50
2023-01-09T18:30:28.184Z,4.30
2023-01-09T18:33:01.196Z,6.37
2023-01-09T18:35:34.931Z,4.10
2023-01-09T18:38:09.627Z,3.23
2023-01-09T18:40:42.688Z,3.07
2023-01-09T18:43:16.395Z,3.40
2023-01-09T18:45:49.407Z,2.87
2023-01-09T18:48:22.516Z,3.13
2023-01-09T18:51:05.133Z,2.80
2023-01-09T18:53:39.440Z,2.87
2023-01-09T18:56:12.478Z,2.73
2023-01-09T18:58:45.488Z,2.77
2023-01-09T19:01:19.293Z,2.80
2023-01-09T19:03:52.440Z,2.60
2023-01-09T19:06:25.608Z,3.00
2023-01-09T19:09:00.960Z,2.50
2023-01-09T19:11:33.952Z,3.03
2023-01-09T19:14:06.893Z,2.83
2023-01-09T19:16:40.144Z,6.53
2023-01-09T19:19:13.197Z,4.33
2023-01-09T19:21:46.410Z,3.67
2023-01-09T19:24:21.220Z,3.30
2023-01-09T19:26:54.314Z,3.03
2023-01-09T19:29:27.754Z,3.40
2023-01-09T19:32:00.837Z,3.60
2023-01-09T19:34:33.940Z,3.13
2023-01-09T19:37:09.465Z,3.03
2023-01-09T19:39:43.954Z,3.07
2023-01-09T19:42:17.949Z,3.53
2023-01-09T19:44:50.993Z,3.30
2023-01-09T19:47:24.057Z,3.30
2023-01-09T19:49:57.049Z,3.03
2023-01-09T19:52:30.039Z,3.03
2023-01-09T19:55:04.528Z,3.00
2023-01-09T19:57:37.646Z,2.87
2023-01-09T20:00:12.511Z,3.10
2023-01-09T20:02:45.494Z,2.70
2023-01-09T20:05:18.770Z,3.27
2023-01-09T20:07:55.018Z,3.87
2023-01-09T20:10:29.325Z,3.70
2023-01-09T20:13:02.295Z,3.73
2023-01-09T20:15:35.288Z,4.93
2023-01-09T20:18:08.285Z,3.07
2023-01-09T20:20:44.264Z,3.60
2023-01-09T20:23:19.444Z,3.07
2023-01-09T20:25:54.497Z,3.03
2023-01-09T20:28:28.689Z,3.30
2023-01-09T20:31:03.098Z,3.10
2023-01-09T20:33:36.172Z,3.33
2023-01-09T20:36:10.373Z,3.90
2023-01-09T20:38:44.305Z,4.77
2023-01-09T20:41:23.463Z,3.63
2023-01-09T20:43:59.585Z,3.60
2023-01-09T20:46:36.801Z,3.30
2023-01-09T20:49:13.197Z,3.20
2023-01-09T20:51:48.455Z,3.80
2023-01-09T20:54:22.948Z,3.30
2023-01-09T20:56:57.236Z,4.03
2023-01-09T20:59:30.234Z,3.77
2023-01-09T21:02:03.239Z,4.53
2023-01-09T21:04:36.208Z,4.73
2023-01-09T21:07:10.811Z,5.13
2023-01-09T21:09:43.911Z,5.47
2023-01-09T21:12:34.664Z,5.00
2023-01-09T21:15:11.547Z,3.53
2023-01-09T21:17:45.007Z,3.30
2023-01-09T21:20:18.064Z,3.07
2023-01-09T21:22:51.098Z,3.20
2023-01-09T21:25:24.189Z,3.00
2023-01-09T21:27:58.792Z,3.43
2023-01-09T21:30:31.847Z,3.40
2023-01-09T21:33:05.080Z,3.47
2023-01-09T21:35:38.195Z,3.40
2023-01-09T21:38:11.203Z,3.10
2023-01-09T21:40:44.254Z,3.03
2023-01-09T21:43:44.634Z,3.03
2023-01-09T21:46:36.496Z,2.93
2023-01-09T21:49:09.544Z,3.57
2023-01-09T21:51:42.603Z,3.20
2023-01-09T21:54:15.648Z,3.10
2023-01-09T21:56:48.662Z,2.80
2023-01-09T21:59:22.988Z,3.50
2023-01-09T22:01:56.149Z,4.03
2023-01-09T22:04:30.457Z,3.60
2023-01-09T22:07:03.538Z,3.83
2023-01-09T22:09:37.257Z,3.83
2023-01-09T22:12:12.316Z,4.17
2023-01-09T22:14:46.603Z,4.40
2023-01-09T22:17:19.547Z,5.63
2023-01-09T22:19:52.576Z,3.90
2023-01-09T22:22:25.603Z,3.60
2023-01-09T22:24:59.703Z,4.10
2023-01-09T22:27:32.660Z,3.77
2023-01-09T22:30:10.620Z,3.47
2023-01-09T22:32:43.793Z,3.80
2023-01-09T22:35:16.925Z,3.70
2023-01-09T22:37:49.908Z,3.30
2023-01-09T22:40:22.903Z,3.80
2023-01-09T22:42:56.233Z,3.40
2023-01-09T22:45:31.008Z,3.77
2023-01-09T22:48:04.089Z,3.03
2023-01-09T22:50:37.653Z,3.20
2023-01-09T22:53:10.669Z,3.73
2023-01-09T22:55:43.633Z,2.90
2023-01-09T22:58:16.632Z,2.93
2023-01-09T23:00:50.971Z,3.30
2023-01-09T23:03:24.728Z,3.37
2023-01-09T23:06:02.555Z,3.17
2023-01-09T23:08:36.251Z,3.53
2023-01-09T23:11:13.306Z,3.10
2023-01-09T23:13:46.253Z,3.60
2023-01-09T23:16:20.614Z,3.70
2023-01-09T23:18:53.633Z,3.67
2023-01-09T23:21:26.623Z,3.10
2023-01-09T23:23:59.599Z,3.80
2023-01-09T23:26:34.511Z,3.87
2023-01-09T23:29:07.993Z,3.67
2023-01-09T23:31:42.524Z,3.30
2023-01-09T23:34:19.560Z,3.33
2023-01-09T23:36:55.389Z,3.57
2023-01-09T23:39:28.404Z,3.20
2023-01-09T23:42:19.217Z,3.13
2023-01-09T23:44:52.288Z,4.43
2023-01-09T23:47:26.612Z,3.73
2023-01-09T23:49:59.610Z,3.13
2023-01-09T23:52:32.598Z,3.13
2023-01-09T23:55:06.952Z,3.20
2023-01-09T23:57:39.984Z,3.00
